Flugplatz - Wetter - Augsburg

[Quelle: ADDS]
METAR
EDMA 211250Z 22007KT 160V280 9999 VCSH NSC 24/16 Q1022 =
EDMA 211100Z 2112/2121 26008KT 9999 SCT030 PROB30 TEMPO 2112/2115 33015G25KT TSRA BKN025CB BECMG 2117/2119 VRB03KT
TAF
EDMA 211100Z 2112/2121 26008KT 9999 SCT030 PROB30 TEMPO 2112/2115 33015G25KT TSRA BKN025CB BECMG 2117/2119 VRB03KT =
SR / SS: 03:39 / 19:09 UTC (Augsburg 2019-07-21)

Flugplatz - Wetter - Laupheim

[Quelle: ADDS]
METAR
ETHL 211220Z AUTO 18008KT 9999 // ////// 21/16 Q1023 /// =
TAF
SR / SS: 03:43 / 19:12 UTC (Laupheim 2019-07-21)

Flugplatz - Wetter - Memmingen

[Quelle: ADDS]
METAR
EDJA 211250Z 24009KT 9999 FEW030 SCT084 BKN098 23/17 Q1024 =
EDJA 211100Z 2112/2121 24010KT 9999 SCT030 PROB30 TEMPO 2112/2115 30015G25KT TSRA BKN030CB BECMG 2114/2115 24005KT BECMG 2116/2118 VRB02KT
TAF
EDJA 211100Z 2112/2121 24010KT 9999 SCT030 PROB30 TEMPO 2112/2115 30015G25KT TSRA BKN030CB BECMG 2114/2115 24005KT BECMG 2116/2118 VRB02KT =
SR / SS: 03:43 / 19:08 UTC (Memmingen 2019-07-21)

Flugplatz - Wetter - Neuburg/Donau

[Quelle: ADDS]
METAR
ETSN 211220Z 26006KT 9999 VCSH FEW030CB SCT040 BKN260 25/15 Q1022 BLU+ =
ETSN 211000Z 2111/2120 25010KT 9999 NSW SCT050 PROB30 2111/2117 27015G25KT 3000 TSRA BKN030CB BY ETGL
TAF
ETSN 211000Z 2111/2120 25010KT 9999 NSW SCT050 PROB30 2111/2117 27015G25KT 3000 TSRA BKN030CB BY ETGL =
SR / SS: 03:36 / 19:07 UTC (Neuburg 2019-07-21)

Flugplatz - Wetter - Stuttgart

[Quelle: ADDS]
METAR
EDDS 211250Z 28013KT 250V310 9999 FEW050CB SCT053TCU 26/12 Q1022 NOSIG =
EDDS 211100Z 2112/2212 29007KT 9999 SCT045 PROB30 TEMPO 2112/2115 30015G25KT 3000 TSRA SCT030CB BECMG 2118/2121 VRB03KT
TAF
EDDS 211100Z 2112/2212 29007KT 9999 SCT045 PROB30 TEMPO 2112/2115 30015G25KT 3000 TSRA SCT030CB BECMG 2118/2121 VRB03KT =
SR / SS: 03:44 / 19:15 UTC (Stuttgart 2019-07-21)

Flugplatz - Wetter - Niederstetten

[Quelle: ADDS]
METAR
ETHN 211220Z 26014KT 9999 SCT048TCU 24/13 Q1022 BLU+ =
TAF
SR / SS: 03:39 / 19:16 UTC (Niederstetten 2019-07-21)